createdAt,value
2019-01-03T00:00:02.061Z,71.39
2019-01-03T00:02:50.152Z,71.22
2019-01-03T00:05:40.536Z,71.77
2019-01-03T00:08:26.578Z,71.88
2019-01-03T00:11:35.305Z,72.26
2019-01-03T00:14:24.259Z,71.58
2019-01-03T00:17:12.942Z,70.62
2019-01-03T00:20:03.309Z,70.57
2019-01-03T00:23:02.949Z,71.99
2019-01-03T00:25:56.008Z,71.60
2019-01-03T00:28:44.087Z,71.60
2019-01-03T00:31:39.289Z,71.69
2019-01-03T00:34:28.987Z,72.62
2019-01-03T00:37:26.139Z,71.29
2019-01-03T00:40:14.649Z,72.00
2019-01-03T00:43:08.196Z,72.22
2019-01-03T00:45:57.244Z,72.19
2019-01-03T00:48:51.957Z,71.77
2019-01-03T00:51:40.959Z,71.72
2019-01-03T00:54:32.359Z,71.41
2019-01-03T00:57:21.026Z,71.69
2019-01-03T01:00:11.130Z,71.64
2019-01-03T01:03:01.439Z,71.61
2019-01-03T01:06:03.145Z,71.74
2019-01-03T01:08:53.458Z,72.29
2019-01-03T01:12:04.385Z,71.97
2019-01-03T01:15:09.641Z,72.40
2019-01-03T01:18:17.804Z,72.17
2019-01-03T01:21:26.343Z,72.36
2019-01-03T01:24:22.483Z,72.21
2019-01-03T01:27:12.713Z,71.15
2019-01-03T01:30:13.871Z,71.81
2019-01-03T01:33:08.917Z,71.87
2019-01-03T01:36:02.117Z,71.70
2019-01-03T01:38:58.603Z,72.73
2019-01-03T01:42:00.985Z,72.00
2019-01-03T01:45:09.311Z,72.56
2019-01-03T01:48:17.923Z,72.27
2019-01-03T01:51:17.287Z,72.81
2019-01-03T01:54:07.609Z,72.73
2019-01-03T01:57:12.875Z,72.99
2019-01-03T01:59:57.867Z,72.46
2019-01-03T02:03:00.042Z,73.25
2019-01-03T02:05:45.421Z,71.75
2019-01-03T02:08:40.017Z,71.97
2019-01-03T02:11:33.863Z,72.39
2019-01-03T02:14:32.807Z,72.56
2019-01-03T02:17:21.663Z,72.16
2019-01-03T02:20:10.571Z,72.99
2019-01-03T02:22:59.576Z,73.08
2019-01-03T02:25:43.578Z,73.23
2019-01-03T02:28:36.941Z,72.84
2019-01-03T02:31:27.244Z,72.56
2019-01-03T02:34:15.842Z,72.66
2019-01-03T02:37:06.145Z,72.94
2019-01-03T02:39:59.252Z,72.89
2019-01-03T02:42:55.501Z,72.60
2019-01-03T02:45:48.639Z,73.64
2019-01-03T02:48:45.301Z,73.31
2019-01-03T02:51:50.860Z,72.96
2019-01-03T02:54:47.033Z,73.33
2019-01-03T02:57:35.799Z,73.72
2019-01-03T03:00:38.126Z,73.42
2019-01-03T03:03:26.983Z,73.46
2019-01-03T03:06:36.199Z,73.28
2019-01-03T03:09:30.271Z,73.65
2019-01-03T03:12:19.279Z,73.75
2019-01-03T03:15:18.810Z,73.91
2019-01-03T03:18:17.915Z,73.83
2019-01-03T03:21:08.241Z,74.12
2019-01-03T03:23:57.132Z,73.71
2019-01-03T03:26:45.781Z,73.70
2019-01-03T03:29:34.712Z,73.23
2019-01-03T03:32:43.315Z,73.08
2019-01-03T03:35:31.956Z,73.38
2019-01-03T03:38:20.939Z,73.39
2019-01-03T03:41:20.161Z,74.45
2019-01-03T03:44:09.032Z,73.68
2019-01-03T03:47:09.735Z,73.46
2019-01-03T03:50:08.941Z,73.62
2019-01-03T03:52:57.751Z,74.75
2019-01-03T03:55:53.957Z,73.22
2019-01-03T03:58:42.718Z,73.87
2019-01-03T04:01:35.885Z,74.29
2019-01-03T04:04:45.235Z,74.10
2019-01-03T04:07:33.980Z,74.55
2019-01-03T04:10:23.502Z,74.21
2019-01-03T04:13:08.027Z,74.09
2019-01-03T04:16:00.326Z,73.88
2019-01-03T04:18:50.641Z,73.96
2019-01-03T04:21:39.316Z,73.58
2019-01-03T04:24:26.619Z,74.66
2019-01-03T04:27:16.946Z,74.36
2019-01-03T04:30:09.937Z,73.86
2019-01-03T04:32:58.842Z,74.68
2019-01-03T04:36:07.095Z,74.63
2019-01-03T04:39:06.528Z,74.35
2019-01-03T04:42:05.887Z,74.94
2019-01-03T04:44:54.486Z,74.83
2019-01-03T04:47:43.133Z,74.44
2019-01-03T04:50:36.420Z,74.49
2019-01-03T04:53:24.524Z,74.35
2019-01-03T04:56:17.680Z,75.03
2019-01-03T04:59:20.144Z,74.12
2019-01-03T05:02:09.786Z,75.04
2019-01-03T05:04:58.762Z,75.18
2019-01-03T05:07:43.612Z,74.64
2019-01-03T05:10:29.602Z,74.04
2019-01-03T05:13:19.920Z,73.59
2019-01-03T05:16:13.010Z,74.36
2019-01-03T05:19:21.208Z,74.31
2019-01-03T05:22:10.210Z,74.22
2019-01-03T05:25:15.473Z,75.01
2019-01-03T05:28:05.775Z,74.97
2019-01-03T05:31:04.052Z,75.27
2019-01-03T05:33:59.163Z,75.76
2019-01-03T05:36:58.251Z,75.76
2019-01-03T05:39:51.364Z,75.67
2019-01-03T05:42:47.280Z,76.12
2019-01-03T05:45:49.545Z,76.10
2019-01-03T05:48:45.652Z,75.44
2019-01-03T05:51:53.928Z,75.34
2019-01-03T05:54:59.482Z,76.12
2019-01-03T05:57:58.622Z,75.87
2019-01-03T06:01:06.904Z,75.65
2019-01-03T06:03:49.548Z,75.76
2019-01-03T06:06:39.864Z,75.80
2019-01-03T06:09:28.458Z,75.86
2019-01-03T06:12:29.898Z,76.10
2019-01-03T06:15:18.578Z,76.48
2019-01-03T06:18:07.437Z,75.64
2019-01-03T06:20:56.182Z,75.76
2019-01-03T06:23:49.477Z,75.95
2019-01-03T06:26:38.344Z,76.35
2019-01-03T06:29:31.558Z,74.45
2019-01-03T06:32:20.637Z,74.39
2019-01-03T06:35:23.186Z,74.43
2019-01-03T06:38:12.762Z,74.90
2019-01-03T06:41:09.116Z,75.12
2019-01-03T06:44:02.219Z,74.72
2019-01-03T06:47:05.877Z,75.85
2019-01-03T06:50:05.258Z,75.60
2019-01-03T06:53:07.696Z,75.21
2019-01-03T06:55:54.870Z,74.93
2019-01-03T06:58:45.178Z,74.68
2019-01-03T07:01:44.833Z,74.84
2019-01-03T07:04:44.186Z,74.02
2019-01-03T07:07:32.808Z,74.34
2019-01-03T07:10:21.855Z,74.59
2019-01-03T07:13:18.260Z,74.04
2019-01-03T07:16:07.230Z,73.80
2019-01-03T07:19:12.729Z,73.82
2019-01-03T07:22:01.788Z,74.62
2019-01-03T07:25:04.300Z,74.27
2019-01-03T07:27:53.032Z,73.16
2019-01-03T07:30:46.119Z,73.89
2019-01-03T07:33:51.582Z,74.02
2019-01-03T07:36:40.316Z,74.63
2019-01-03T07:39:26.934Z,74.18
2019-01-03T07:42:20.081Z,74.32
2019-01-03T07:45:13.448Z,74.53
2019-01-03T07:48:02.409Z,74.58
2019-01-03T07:50:51.436Z,75.03
2019-01-03T07:53:50.812Z,74.03
2019-01-03T07:56:44.292Z,74.16
2019-01-03T07:59:35.375Z,74.93
2019-01-03T08:02:37.600Z,75.22
2019-01-03T08:05:32.113Z,74.56
2019-01-03T08:08:25.260Z,74.51
2019-01-03T08:11:14.344Z,74.51
2019-01-03T08:14:13.551Z,74.56
2019-01-03T08:17:02.356Z,73.83
2019-01-03T08:19:51.151Z,74.24
2019-01-03T08:22:39.871Z,74.69
2019-01-03T08:25:24.512Z,74.52
2019-01-03T08:28:15.396Z,74.17
2019-01-03T08:31:08.115Z,75.18
2019-01-03T08:33:57.138Z,74.12
2019-01-03T08:36:56.609Z,73.79
2019-01-03T08:40:04.894Z,74.36
2019-01-03T08:42:55.206Z,73.65
2019-01-03T08:45:56.972Z,74.28
2019-01-03T08:48:46.025Z,73.38
2019-01-03T08:51:35.019Z,73.48
2019-01-03T08:54:40.620Z,74.60
2019-01-03T08:57:40.069Z,74.11
2019-01-03T09:00:30.574Z,74.09
2019-01-03T09:03:19.796Z,73.74
2019-01-03T09:06:08.691Z,73.11
2019-01-03T09:08:57.689Z,73.35
2019-01-03T09:11:56.790Z,73.07
2019-01-03T09:14:45.499Z,73.43
2019-01-03T09:17:47.811Z,72.80
2019-01-03T09:20:33.114Z,73.90
2019-01-03T09:23:26.563Z,73.40
2019-01-03T09:26:28.870Z,72.71
2019-01-03T09:29:12.877Z,73.04
2019-01-03T09:32:01.847Z,72.59
2019-01-03T09:35:04.206Z,72.22
2019-01-03T09:37:52.553Z,72.67
2019-01-03T09:40:45.766Z,72.90
2019-01-03T09:43:39.143Z,71.71
2019-01-03T09:46:10.615Z,72.53
2019-01-03T09:48:42.071Z,71.50
2019-01-03T09:51:13.529Z,71.70
2019-01-03T09:53:45.150Z,72.20
2019-01-03T09:56:16.598Z,72.22
2019-01-03T09:58:48.055Z,71.24
2019-01-03T10:01:19.557Z,71.66
2019-01-03T10:03:51.037Z,71.50
2019-01-03T10:06:22.466Z,70.70
2019-01-03T10:08:53.870Z,71.06
2019-01-03T10:11:25.411Z,70.21
2019-01-03T10:13:56.907Z,70.01
2019-01-03T10:16:28.345Z,70.03
2019-01-03T10:18:59.935Z,71.59
2019-01-03T10:21:31.621Z,70.63
2019-01-03T10:24:03.016Z,69.82
2019-01-03T10:26:34.528Z,69.98
2019-01-03T10:29:05.997Z,69.51
2019-01-03T10:31:37.421Z,69.88
2019-01-03T10:34:08.834Z,69.31
2019-01-03T10:36:40.379Z,68.77
2019-01-03T10:39:11.814Z,69.08
2019-01-03T10:41:43.267Z,68.28
2019-01-03T10:44:14.683Z,67.53
2019-01-03T10:46:46.151Z,68.85
2019-01-03T10:49:17.586Z,67.03
2019-01-03T10:51:49.041Z,67.17
2019-01-03T10:54:20.504Z,66.60
2019-01-03T10:56:51.940Z,67.90
2019-01-03T10:59:23.359Z,66.90
2019-01-03T11:01:54.830Z,67.38
2019-01-03T11:04:26.288Z,67.13
2019-01-03T11:06:57.766Z,67.53
2019-01-03T11:09:30.859Z,67.05
2019-01-03T11:12:02.340Z,66.91
2019-01-03T11:14:33.800Z,68.22
2019-01-03T11:17:05.305Z,67.38
2019-01-03T11:19:36.739Z,66.88
2019-01-03T11:22:08.216Z,67.47
2019-01-03T11:24:39.598Z,66.95
2019-01-03T11:27:11.086Z,66.79
2019-01-03T11:29:42.580Z,67.60
2019-01-03T11:32:14.139Z,67.01
2019-01-03T11:34:47.326Z,66.46
2019-01-03T11:37:18.846Z,66.96
2019-01-03T11:39:50.294Z,66.99
2019-01-03T11:42:21.734Z,66.14
2019-01-03T11:44:53.156Z,65.68
2019-01-03T11:47:24.630Z,66.03
2019-01-03T11:49:56.114Z,66.26
2019-01-03T11:52:27.561Z,66.04
2019-01-03T11:54:58.998Z,65.04
2019-01-03T11:57:30.472Z,66.45
2019-01-03T12:00:01.901Z,65.83
2019-01-03T12:02:33.406Z,65.36
2019-01-03T12:05:04.935Z,64.32
2019-01-03T12:07:36.480Z,65.29
2019-01-03T12:10:07.979Z,65.26
2019-01-03T12:12:39.515Z,64.68
2019-01-03T12:15:11.289Z,65.39
2019-01-03T12:17:42.776Z,65.36
2019-01-03T12:20:14.263Z,64.06
2019-01-03T12:22:45.705Z,63.89
2019-01-03T12:25:17.172Z,65.20
2019-01-03T12:27:48.807Z,65.30
2019-01-03T12:30:20.272Z,65.46
2019-01-03T12:32:51.720Z,65.40
2019-01-03T12:35:23.170Z,65.09
2019-01-03T12:37:54.634Z,66.01
2019-01-03T12:40:26.076Z,65.26
2019-01-03T12:42:57.614Z,66.79
2019-01-03T12:45:29.127Z,66.41
2019-01-03T12:48:00.556Z,65.34
2019-01-03T12:50:33.639Z,66.08
2019-01-03T12:53:05.194Z,66.19
2019-01-03T12:55:36.656Z,65.76
2019-01-03T12:58:08.165Z,66.69
2019-01-03T13:00:39.518Z,66.29
2019-01-03T13:03:11.070Z,66.59
2019-01-03T13:05:42.548Z,67.33
2019-01-03T13:08:13.982Z,66.13
2019-01-03T13:10:45.435Z,67.24
2019-01-03T13:13:16.917Z,67.06
2019-01-03T13:15:48.342Z,66.71
2019-01-03T13:18:19.847Z,66.33
2019-01-03T13:20:51.774Z,67.67
2019-01-03T13:23:23.313Z,66.76
2019-01-03T13:25:54.765Z,66.65
2019-01-03T13:28:26.264Z,66.15
2019-01-03T13:30:57.770Z,66.06
2019-01-03T13:33:29.265Z,66.46
2019-01-03T13:36:00.729Z,65.11
2019-01-03T13:38:32.305Z,65.43
2019-01-03T13:41:03.721Z,66.06
2019-01-03T13:43:35.199Z,65.69
2019-01-03T13:46:06.646Z,65.69
2019-01-03T13:48:38.163Z,65.34
2019-01-03T13:51:09.614Z,65.10
2019-01-03T13:53:41.155Z,64.96
2019-01-03T13:56:12.604Z,64.72
2019-01-03T13:58:44.065Z,64.47
2019-01-03T14:01:15.547Z,65.38
2019-01-03T14:03:47.056Z,64.73
2019-01-03T14:06:18.504Z,65.36
2019-01-03T14:08:49.878Z,64.88
2019-01-03T14:11:21.361Z,65.40
2019-01-03T14:13:52.839Z,64.67
2019-01-03T14:16:24.370Z,64.38
2019-01-03T14:18:55.882Z,64.67
2019-01-03T14:21:27.353Z,65.81
2019-01-03T14:23:58.823Z,64.99
2019-01-03T14:26:30.345Z,65.40
2019-01-03T14:29:01.841Z,64.38
2019-01-03T14:31:33.367Z,64.92
2019-01-03T14:34:04.873Z,65.51
2019-01-03T14:36:36.314Z,66.76
2019-01-03T14:39:08.813Z,65.89
2019-01-03T14:41:40.266Z,65.79
2019-01-03T14:44:11.718Z,66.09
2019-01-03T14:46:43.183Z,67.19
2019-01-03T14:49:14.718Z,65.58
2019-01-03T14:51:46.144Z,66.75
2019-01-03T14:54:17.647Z,66.28
2019-01-03T14:56:49.145Z,66.80
2019-01-03T14:59:20.626Z,66.77
2019-01-03T15:01:52.156Z,67.14
2019-01-03T15:04:23.623Z,67.43
2019-01-03T15:06:55.145Z,67.23
2019-01-03T15:09:26.675Z,67.09
2019-01-03T15:11:58.161Z,67.44
2019-01-03T15:14:29.631Z,67.20
2019-01-03T15:17:01.114Z,68.72
2019-01-03T15:19:32.608Z,68.02
2019-01-03T15:22:04.049Z,67.53
2019-01-03T15:24:35.508Z,68.63
2019-01-03T15:27:06.949Z,68.50
2019-01-03T15:29:38.443Z,68.85
2019-01-03T15:32:09.875Z,68.06
2019-01-03T15:34:41.299Z,68.68
2019-01-03T15:37:12.719Z,68.48
2019-01-03T15:39:44.204Z,68.70
2019-01-03T15:42:15.626Z,68.45
2019-01-03T15:44:47.184Z,68.53
2019-01-03T15:47:18.673Z,68.53
2019-01-03T15:49:52.561Z,69.32
2019-01-03T15:52:24.009Z,69.37
2019-01-03T15:54:55.458Z,69.49
2019-01-03T15:57:26.921Z,69.24
2019-01-03T15:59:58.376Z,70.60
2019-01-03T16:02:29.716Z,70.08
2019-01-03T16:05:01.159Z,70.26
2019-01-03T16:07:34.983Z,71.06
2019-01-03T16:10:06.906Z,71.17
2019-01-03T16:12:38.350Z,70.45
2019-01-03T16:15:09.844Z,71.40
2019-01-03T16:17:41.225Z,71.71
2019-01-03T16:20:12.695Z,71.77
2019-01-03T16:22:44.240Z,71.13
2019-01-03T16:25:15.719Z,72.20
2019-01-03T16:27:47.193Z,71.30
2019-01-03T16:30:18.661Z,71.76
2019-01-03T16:32:50.127Z,71.26
2019-01-03T16:35:21.581Z,72.86
2019-01-03T16:37:53.253Z,71.96
2019-01-03T16:40:24.739Z,73.00
2019-01-03T16:42:56.177Z,72.88
2019-01-03T16:45:27.657Z,71.22
2019-01-03T16:47:59.096Z,72.71
2019-01-03T16:50:30.595Z,72.27
2019-01-03T16:53:02.063Z,72.63
2019-01-03T16:55:33.487Z,71.70
2019-01-03T16:58:04.947Z,71.45
2019-01-03T17:00:36.480Z,72.28
2019-01-03T17:03:08.038Z,72.73
2019-01-03T17:05:39.500Z,73.95
2019-01-03T17:08:11.001Z,73.46
2019-01-03T17:10:42.547Z,73.23
2019-01-03T17:13:14.009Z,74.08
2019-01-03T17:15:45.486Z,73.96
2019-01-03T17:18:16.877Z,74.24
2019-01-03T17:20:48.391Z,74.33
2019-01-03T17:23:19.814Z,75.01
2019-01-03T17:25:51.330Z,74.45
2019-01-03T17:28:22.832Z,75.21
2019-01-03T17:30:55.280Z,75.97
2019-01-03T17:33:26.730Z,74.83
2019-01-03T17:35:58.232Z,75.15
2019-01-03T17:38:29.736Z,75.40
2019-01-03T17:41:01.627Z,75.12
2019-01-03T17:43:33.156Z,75.71
2019-01-03T17:46:04.657Z,75.60
2019-01-03T17:48:36.106Z,76.38
2019-01-03T17:51:07.596Z,75.95
2019-01-03T17:53:40.330Z,75.73
2019-01-03T17:56:11.817Z,75.54
2019-01-03T17:58:44.361Z,75.91
2019-01-03T18:01:15.808Z,75.79
2019-01-03T18:03:48.231Z,75.88
2019-01-03T18:06:19.743Z,75.57
2019-01-03T18:08:51.193Z,75.87
2019-01-03T18:11:22.780Z,75.81
2019-01-03T18:13:54.187Z,76.52
2019-01-03T18:16:25.673Z,76.86
2019-01-03T18:18:57.147Z,76.36
2019-01-03T18:21:28.634Z,76.44
2019-01-03T18:24:00.107Z,76.33
2019-01-03T18:26:31.597Z,76.68
2019-01-03T18:29:03.064Z,76.74
2019-01-03T18:31:34.545Z,75.80
2019-01-03T18:34:06.033Z,76.55
2019-01-03T18:36:38.541Z,76.46
2019-01-03T18:39:09.966Z,77.03
2019-01-03T18:41:41.436Z,77.22
2019-01-03T18:44:13.244Z,77.56
2019-01-03T18:46:44.710Z,77.55
2019-01-03T18:49:16.177Z,78.24
2019-01-03T18:51:47.666Z,77.76
2019-01-03T18:54:19.151Z,77.38
2019-01-03T18:56:50.633Z,77.22
2019-01-03T18:59:22.150Z,76.90
2019-01-03T19:01:53.683Z,77.49
2019-01-03T19:04:25.236Z,77.56
2019-01-03T19:06:56.724Z,77.95
2019-01-03T19:09:28.162Z,77.69
2019-01-03T19:11:59.662Z,78.06
2019-01-03T19:14:31.177Z,77.08
2019-01-03T19:17:02.691Z,78.18
2019-01-03T19:19:34.128Z,77.53
2019-01-03T19:22:05.727Z,77.57
2019-01-03T19:24:37.203Z,77.29
2019-01-03T19:27:08.726Z,77.81
2019-01-03T19:29:40.202Z,77.54
2019-01-03T19:32:11.766Z,77.41
2019-01-03T19:34:43.260Z,77.50
2019-01-03T19:37:14.730Z,77.25
2019-01-03T19:39:46.210Z,77.47
2019-01-03T19:42:17.720Z,76.87
2019-01-03T19:44:49.124Z,77.87
2019-01-03T19:47:20.621Z,76.53
2019-01-03T19:49:51.940Z,77.27
2019-01-03T19:52:23.421Z,77.99
2019-01-03T19:54:54.904Z,77.14
2019-01-03T19:57:26.414Z,77.69
2019-01-03T19:59:57.846Z,77.59
2019-01-03T20:02:29.338Z,76.99
2019-01-03T20:05:00.770Z,77.73
2019-01-03T20:07:32.246Z,77.41
2019-01-03T20:10:03.868Z,77.80
2019-01-03T20:12:35.369Z,77.32
2019-01-03T20:15:07.707Z,77.64
2019-01-03T20:17:39.158Z,77.63
2019-01-03T20:20:10.983Z,77.27
2019-01-03T20:22:42.473Z,77.38
2019-01-03T20:25:14.004Z,77.65
2019-01-03T20:27:45.521Z,78.11
2019-01-03T20:30:17.026Z,78.16
2019-01-03T20:32:48.665Z,77.79
2019-01-03T20:35:20.149Z,77.89
2019-01-03T20:37:51.696Z,77.37
2019-01-03T20:40:24.500Z,77.94
2019-01-03T20:42:55.956Z,77.80
2019-01-03T20:45:27.404Z,78.36
2019-01-03T20:47:58.868Z,78.46
2019-01-03T20:50:30.330Z,78.30
2019-01-03T20:53:01.798Z,77.63
2019-01-03T20:55:33.240Z,79.45
2019-01-03T20:58:04.704Z,79.22
2019-01-03T21:00:36.194Z,79.17
2019-01-03T21:03:07.731Z,78.97
2019-01-03T21:05:39.236Z,79.24
2019-01-03T21:08:10.764Z,79.38
2019-01-03T21:10:42.292Z,80.28
2019-01-03T21:13:13.761Z,79.87
2019-01-03T21:15:45.226Z,79.86
2019-01-03T21:18:16.661Z,79.89
2019-01-03T21:20:56.734Z,80.17
2019-01-03T21:23:35.045Z,79.46
2019-01-03T21:26:13.098Z,79.76
2019-01-03T21:28:45.364Z,80.00
2019-01-03T21:31:16.806Z,78.43
2019-01-03T21:33:48.271Z,79.90
2019-01-03T21:36:19.752Z,79.47
2019-01-03T21:38:51.217Z,78.65
2019-01-03T21:41:22.662Z,78.38
2019-01-03T21:43:54.147Z,78.61
2019-01-03T21:46:25.606Z,79.24
2019-01-03T21:48:57.091Z,79.89
2019-01-03T21:51:28.633Z,78.90
2019-01-03T21:54:00.084Z,79.61
2019-01-03T21:56:31.526Z,79.42
2019-01-03T21:59:02.976Z,79.74
2019-01-03T22:01:34.449Z,78.77
2019-01-03T22:04:05.929Z,79.43
2019-01-03T22:06:37.353Z,79.56
2019-01-03T22:09:08.869Z,79.70
2019-01-03T22:11:40.365Z,79.60
2019-01-03T22:14:11.864Z,79.08
2019-01-03T22:16:43.286Z,80.19
2019-01-03T22:19:14.765Z,79.90
2019-01-03T22:21:46.193Z,79.94
2019-01-03T22:24:17.696Z,80.80
2019-01-03T22:26:50.282Z,80.41
2019-01-03T22:29:21.738Z,80.43
2019-01-03T22:31:53.089Z,79.01
2019-01-03T22:34:24.581Z,79.48
2019-01-03T22:36:56.021Z,79.94
2019-01-03T22:39:27.493Z,80.03
2019-01-03T22:42:00.539Z,80.60
2019-01-03T22:44:32.007Z,80.19
2019-01-03T22:47:03.451Z,80.41
2019-01-03T22:49:34.907Z,79.24
2019-01-03T22:52:06.502Z,79.45
2019-01-03T22:54:37.990Z,80.06
2019-01-03T22:57:09.429Z,80.51
2019-01-03T22:59:40.873Z,80.67
2019-01-03T23:02:12.234Z,80.59
2019-01-03T23:04:48.959Z,80.55
2019-01-03T23:07:16.797Z,80.33
2019-01-03T23:09:48.344Z,80.57
2019-01-03T23:12:19.789Z,80.89
2019-01-03T23:14:51.263Z,80.94
2019-01-03T23:17:22.703Z,80.30
2019-01-03T23:19:54.171Z,81.14
2019-01-03T23:22:25.605Z,81.00
2019-01-03T23:24:57.156Z,81.07
2019-01-03T23:27:28.656Z,80.86
2019-01-03T23:30:00.176Z,80.40
2019-01-03T23:32:31.679Z,80.09
2019-01-03T23:35:03.323Z,80.51
2019-01-03T23:37:34.749Z,79.85
2019-01-03T23:40:07.415Z,80.60
2019-01-03T23:42:38.856Z,80.67
2019-01-03T23:45:32.316Z,80.97
2019-01-03T23:48:04.107Z,81.32
2019-01-03T23:50:37.022Z,81.00
2019-01-03T23:53:08.479Z,81.06
2019-01-03T23:55:45.870Z,81.64
2019-01-03T23:58:17.201Z,80.47
